createdAt,value
2022-12-11T00:01:58.379Z,10.05
2022-12-11T00:04:25.026Z,10.52
2022-12-11T00:06:52.608Z,9.88
2022-12-11T00:09:20.519Z,8.75
2022-12-11T00:11:47.567Z,9.43
2022-12-11T00:14:15.487Z,10.10
2022-12-11T00:16:42.239Z,8.50
2022-12-11T00:19:09.009Z,9.23
2022-12-11T00:21:36.175Z,10.10
2022-12-11T00:24:02.836Z,9.45
2022-12-11T00:26:29.512Z,9.68
2022-12-11T00:28:57.157Z,9.13
2022-12-11T00:31:24.780Z,9.30
2022-12-11T00:33:51.706Z,8.75
2022-12-11T00:36:21.255Z,10.82
2022-12-11T00:38:49.212Z,8.73
2022-12-11T00:41:18.894Z,9.73
2022-12-11T00:43:46.269Z,9.15
2022-12-11T00:46:13.449Z,10.68
2022-12-11T00:48:40.211Z,8.93
2022-12-11T00:51:07.497Z,9.10
2022-12-11T00:53:34.166Z,21.58
2022-12-11T00:56:00.884Z,12.07
2022-12-11T00:58:27.765Z,9.18
2022-12-11T01:00:54.622Z,8.93
2022-12-11T01:03:21.360Z,7.53
2022-12-11T01:05:52.997Z,9.88
2022-12-11T01:08:19.741Z,10.25
2022-12-11T01:10:46.477Z,17.38
2022-12-11T01:13:13.274Z,8.30
2022-12-11T01:15:45.299Z,9.95
2022-12-11T01:18:14.079Z,8.50
2022-12-11T01:20:42.723Z,10.32
2022-12-11T01:23:13.163Z,10.20
2022-12-11T01:25:39.880Z,9.25
2022-12-11T01:28:07.656Z,7.85
2022-12-11T01:30:35.784Z,7.13
2022-12-11T01:33:02.969Z,8.05
2022-12-11T01:35:29.588Z,8.75
2022-12-11T01:37:56.315Z,9.32
2022-12-11T01:40:23.597Z,9.63
2022-12-11T01:42:50.585Z,10.15
2022-12-11T01:45:38.958Z,9.30
2022-12-11T01:48:09.803Z,8.73
2022-12-11T01:50:42.227Z,9.38
2022-12-11T01:53:12.254Z,9.43
2022-12-11T01:55:39.963Z,8.38
2022-12-11T01:58:06.976Z,8.27
2022-12-11T02:00:33.635Z,8.48
2022-12-11T02:03:00.279Z,7.90
2022-12-11T02:05:26.929Z,7.50
2022-12-11T02:07:58.453Z,7.40
2022-12-11T02:10:44.447Z,7.78
2022-12-11T02:13:39.763Z,7.50
2022-12-11T02:16:16.726Z,7.05
2022-12-11T02:18:53.518Z,7.30
2022-12-11T02:21:23.028Z,6.43
2022-12-11T02:24:18.916Z,6.82
2022-12-11T02:27:16.329Z,6.35
2022-12-11T02:30:09.341Z,6.95
2022-12-11T02:32:55.631Z,6.75
2022-12-11T02:35:35.546Z,6.93
2022-12-11T02:38:08.051Z,14.85
2022-12-11T02:40:38.418Z,8.27
2022-12-11T02:43:09.907Z,7.95
2022-12-11T02:45:39.707Z,7.82
2022-12-11T02:48:09.943Z,6.70
2022-12-11T02:50:42.393Z,7.55
2022-12-11T02:53:12.383Z,7.70
2022-12-11T02:55:41.447Z,6.60
2022-12-11T02:58:26.897Z,7.28
2022-12-11T03:00:53.595Z,7.00
2022-12-11T03:03:20.914Z,7.82
2022-12-11T03:05:47.835Z,7.47
2022-12-11T03:08:17.497Z,7.55
2022-12-11T03:10:45.547Z,7.82
2022-12-11T03:13:16.346Z,7.28
2022-12-11T03:16:03.972Z,7.47
2022-12-11T03:18:50.007Z,8.70
2022-12-11T03:21:24.747Z,8.15
2022-12-11T03:24:05.222Z,9.05
2022-12-11T03:26:38.315Z,7.60
2022-12-11T03:29:15.773Z,8.63
2022-12-11T03:31:46.334Z,8.50
2022-12-11T03:34:24.711Z,8.07
2022-12-11T03:36:53.704Z,8.93
2022-12-11T03:39:32.519Z,8.35
2022-12-11T03:42:05.894Z,8.00
2022-12-11T03:44:34.990Z,8.20
2022-12-11T03:47:05.807Z,8.32
2022-12-11T03:49:37.143Z,10.38
2022-12-11T03:52:05.730Z,9.57
2022-12-11T03:54:34.423Z,10.10
2022-12-11T03:57:04.367Z,9.98
2022-12-11T03:59:31.006Z,9.00
2022-12-11T04:01:57.909Z,9.77
2022-12-11T04:04:24.668Z,9.18
2022-12-11T04:06:51.415Z,8.50
2022-12-11T04:09:18.089Z,9.23
2022-12-11T04:11:44.765Z,8.20
2022-12-11T04:14:32.751Z,7.00
2022-12-11T04:17:00.608Z,7.03
2022-12-11T04:19:45.881Z,7.38
2022-12-11T04:22:33.024Z,7.30
2022-12-11T04:25:00.406Z,7.05
2022-12-11T04:27:45.852Z,7.05
2022-12-11T04:30:19.125Z,6.65
2022-12-11T04:32:45.714Z,6.50
2022-12-11T04:35:13.073Z,7.82
2022-12-11T04:37:39.933Z,7.55
2022-12-11T04:40:10.659Z,6.82
2022-12-11T04:42:37.465Z,6.60
2022-12-11T04:45:05.814Z,6.32
2022-12-11T04:47:32.428Z,6.95
2022-12-11T04:49:59.084Z,6.18
2022-12-11T04:52:25.686Z,6.53
2022-12-11T04:54:52.374Z,6.07
2022-12-11T04:57:20.740Z,6.22
2022-12-11T04:59:47.956Z,6.43
2022-12-11T05:02:15.757Z,6.57
2022-12-11T05:04:42.733Z,6.53
2022-12-11T05:07:09.613Z,6.30
2022-12-11T05:09:36.595Z,7.15
2022-12-11T05:12:03.703Z,6.90
2022-12-11T05:14:32.015Z,6.50
2022-12-11T05:16:59.670Z,6.75
2022-12-11T05:19:26.978Z,6.43
2022-12-11T05:21:53.859Z,6.80
2022-12-11T05:24:20.603Z,7.03
2022-12-11T05:26:47.188Z,7.82
2022-12-11T05:29:13.826Z,6.75
2022-12-11T05:31:40.540Z,7.20
2022-12-11T05:34:07.186Z,7.95
2022-12-11T05:36:34.392Z,7.00
2022-12-11T05:39:02.065Z,7.15
2022-12-11T05:41:31.016Z,7.20
2022-12-11T05:43:57.626Z,6.55
2022-12-11T05:46:27.161Z,6.45
2022-12-11T05:49:00.301Z,8.85
2022-12-11T05:51:28.229Z,7.78
2022-12-11T05:53:56.573Z,8.23
2022-12-11T05:56:26.831Z,11.07
2022-12-11T05:58:54.501Z,8.40
2022-12-11T06:01:28.515Z,8.15
2022-12-11T06:03:56.318Z,6.65
2022-12-11T06:06:23.972Z,8.35
2022-12-11T06:08:51.929Z,7.82
2022-12-11T06:11:23.800Z,8.40
2022-12-11T06:13:52.039Z,8.57
2022-12-11T06:16:18.848Z,7.45
2022-12-11T06:18:45.859Z,7.22
2022-12-11T06:21:19.849Z,7.88
2022-12-11T06:23:48.136Z,8.60
2022-12-11T06:26:15.883Z,8.38
2022-12-11T06:28:42.651Z,7.25
2022-12-11T06:31:10.024Z,7.05
2022-12-11T06:33:36.823Z,7.15
2022-12-11T06:36:05.628Z,7.25
2022-12-11T06:38:32.566Z,8.18
2022-12-11T06:41:01.895Z,7.43
2022-12-11T06:43:28.500Z,7.68
2022-12-11T06:45:59.189Z,8.77
2022-12-11T06:48:28.825Z,9.02
2022-12-11T06:50:55.479Z,9.05
2022-12-11T06:53:22.141Z,8.80
2022-12-11T06:55:48.755Z,8.07
2022-12-11T06:58:15.434Z,7.90
2022-12-11T07:00:42.251Z,8.45
2022-12-11T07:03:10.037Z,8.88
2022-12-11T07:05:36.695Z,8.63
2022-12-11T07:08:03.423Z,7.93
2022-12-11T07:10:30.136Z,8.43
2022-12-11T07:12:56.744Z,6.97
2022-12-11T07:15:23.455Z,6.72
2022-12-11T07:17:50.069Z,7.45
2022-12-11T07:20:17.322Z,7.15
2022-12-11T07:22:46.705Z,6.65
2022-12-11T07:25:14.695Z,7.40
2022-12-11T07:27:41.915Z,7.55
2022-12-11T07:30:09.538Z,10.40
2022-12-11T07:32:36.406Z,37.15
2022-12-11T07:35:03.741Z,19.85
2022-12-11T07:37:30.342Z,14.85
2022-12-11T07:39:57.022Z,12.18
2022-12-11T07:42:23.742Z,9.82
2022-12-11T07:44:50.451Z,11.02
2022-12-11T07:47:17.066Z,10.73
2022-12-11T07:49:43.661Z,11.43
2022-12-11T07:52:10.458Z,15.18
2022-12-11T07:54:37.192Z,15.45
2022-12-11T07:57:03.852Z,15.55
2022-12-11T07:59:31.002Z,16.73
2022-12-11T08:01:57.784Z,14.63
2022-12-11T08:04:24.503Z,15.38
2022-12-11T08:06:51.129Z,15.18
2022-12-11T08:09:21.239Z,13.23
2022-12-11T08:11:50.484Z,13.48
2022-12-11T08:14:18.004Z,14.48
2022-12-11T08:16:44.821Z,18.45
2022-12-11T08:19:12.383Z,19.45
2022-12-11T08:21:40.083Z,19.40
2022-12-11T08:24:07.931Z,19.80
2022-12-11T08:26:34.817Z,17.73
2022-12-11T08:29:02.581Z,18.23
2022-12-11T08:31:29.754Z,16.77
2022-12-11T08:33:56.849Z,18.80
2022-12-11T08:36:23.990Z,17.23
2022-12-11T08:38:51.785Z,17.70
2022-12-11T08:41:20.826Z,19.05
2022-12-11T08:43:48.174Z,21.08
2022-12-11T08:46:15.346Z,25.55
2022-12-11T08:48:43.211Z,26.77
2022-12-11T08:51:15.756Z,24.83
2022-12-11T08:53:43.012Z,20.95
2022-12-11T08:56:18.011Z,20.98
2022-12-11T08:58:45.792Z,21.75
2022-12-11T09:01:15.723Z,26.10
2022-12-11T09:03:42.638Z,25.15
2022-12-11T09:06:12.327Z,24.05
2022-12-11T09:08:38.966Z,26.63
2022-12-11T09:11:08.207Z,23.55
2022-12-11T09:13:35.330Z,20.97
2022-12-11T09:16:05.550Z,23.10
2022-12-11T09:18:32.539Z,24.15
2022-12-11T09:21:01.243Z,25.73
2022-12-11T09:23:27.957Z,23.05
2022-12-11T09:25:54.641Z,22.13
2022-12-11T09:28:21.996Z,23.40
2022-12-11T09:30:48.753Z,21.27
2022-12-11T09:33:15.517Z,21.08
2022-12-11T09:35:42.499Z,20.13
2022-12-11T09:38:09.739Z,20.57
2022-12-11T09:40:43.298Z,17.25
2022-12-11T09:43:26.965Z,17.35
2022-12-11T09:45:55.197Z,18.50
2022-12-11T09:48:26.104Z,16.58
2022-12-11T09:50:54.999Z,16.53
2022-12-11T09:53:34.459Z,16.98
2022-12-11T09:56:15.817Z,17.35
2022-12-11T09:59:14.604Z,25.02
2022-12-11T10:01:59.135Z,17.88
2022-12-11T10:05:04.848Z,16.97
2022-12-11T10:07:45.407Z,17.30
2022-12-11T10:10:40.179Z,19.60
2022-12-11T10:13:34.812Z,24.80
2022-12-11T10:16:17.807Z,22.45
2022-12-11T10:18:44.712Z,20.60
2022-12-11T10:21:14.255Z,20.25
2022-12-11T10:23:48.788Z,20.40
2022-12-11T10:26:21.264Z,19.92
2022-12-11T10:28:47.990Z,19.05
2022-12-11T10:31:38.148Z,18.97
2022-12-11T10:34:26.103Z,18.40
2022-12-11T10:37:00.194Z,17.58
2022-12-11T10:39:27.915Z,16.33
2022-12-11T10:41:56.074Z,16.02
2022-12-11T10:44:28.150Z,13.90
2022-12-11T10:47:15.294Z,13.52
2022-12-11T10:49:59.900Z,13.48
2022-12-11T10:52:35.075Z,13.90
2022-12-11T10:55:06.992Z,13.52
2022-12-11T10:57:39.189Z,13.07
2022-12-11T11:00:08.887Z,12.05
2022-12-11T11:02:38.619Z,12.93
2022-12-11T11:05:34.606Z,12.85
2022-12-11T11:08:13.798Z,12.48
2022-12-11T11:11:21.887Z,14.67
2022-12-11T11:13:48.733Z,11.85
2022-12-11T11:16:20.863Z,12.45
2022-12-11T11:18:55.772Z,11.88
2022-12-11T11:21:26.278Z,12.25
2022-12-11T11:23:54.251Z,11.70
2022-12-11T11:26:38.319Z,12.70
2022-12-11T11:29:27.516Z,13.07
2022-12-11T11:31:54.308Z,14.15
2022-12-11T11:34:22.295Z,16.00
2022-12-11T11:36:57.802Z,14.20
2022-12-11T11:39:41.382Z,15.05
2022-12-11T11:42:27.801Z,15.40
2022-12-11T11:45:10.789Z,14.63
2022-12-11T11:47:45.251Z,18.65
2022-12-11T11:50:19.034Z,14.30
2022-12-11T11:52:51.863Z,16.23
2022-12-11T11:55:28.379Z,13.63
2022-12-11T11:58:13.745Z,15.10
2022-12-11T12:00:40.535Z,14.60
2022-12-11T12:03:15.080Z,14.93
2022-12-11T12:06:04.998Z,13.70
2022-12-11T12:08:48.833Z,13.52
2022-12-11T12:11:30.798Z,11.73
2022-12-11T12:14:03.426Z,11.00
2022-12-11T12:16:53.201Z,13.97
2022-12-11T12:19:35.507Z,14.20
2022-12-11T12:22:31.373Z,12.45
2022-12-11T12:25:00.999Z,13.05
2022-12-11T12:30:23.025Z,10.43
2022-12-11T12:33:05.328Z,8.80
2022-12-11T12:35:36.419Z,8.93
2022-12-11T12:38:09.454Z,9.68
2022-12-11T12:41:14.248Z,7.72
2022-12-11T12:43:56.112Z,8.03
2022-12-11T12:46:50.799Z,8.32
2022-12-11T12:49:29.479Z,9.32
2022-12-11T12:51:57.819Z,11.57
2022-12-11T12:54:28.504Z,9.45
2022-12-11T12:56:56.628Z,8.10
2022-12-11T12:59:28.690Z,10.02
2022-12-11T13:02:06.400Z,8.50
2022-12-11T13:07:32.669Z,8.70
2022-12-11T13:10:25.205Z,7.20
2022-12-11T13:12:52.401Z,6.13
2022-12-11T13:15:32.994Z,5.80
2022-12-11T13:18:01.678Z,7.20
2022-12-11T13:20:32.099Z,13.40
2022-12-11T13:23:18.406Z,6.63
2022-12-11T13:25:57.268Z,6.68
2022-12-11T13:28:28.278Z,8.48
2022-12-11T13:31:02.203Z,6.60
2022-12-11T13:33:30.656Z,5.72
2022-12-11T13:36:15.775Z,4.40
2022-12-11T13:38:51.495Z,4.30
2022-12-11T13:41:20.390Z,4.65
2022-12-11T13:43:49.781Z,6.78
2022-12-11T13:46:25.017Z,9.25
2022-12-11T13:49:00.790Z,8.80
2022-12-11T13:51:31.519Z,9.07
2022-12-11T13:54:17.406Z,8.13
2022-12-11T13:57:03.365Z,5.65
2022-12-11T13:59:37.372Z,6.60
2022-12-11T14:02:21.070Z,8.20
2022-12-11T14:04:50.607Z,9.35
2022-12-11T14:07:23.927Z,7.70
2022-12-11T14:09:51.415Z,8.60
2022-12-11T14:12:21.497Z,10.82
2022-12-11T14:14:54.906Z,3.73
2022-12-11T14:17:28.259Z,4.30
2022-12-11T14:19:58.112Z,4.80
2022-12-11T14:22:29.921Z,7.45
2022-12-11T14:24:59.080Z,7.82
2022-12-11T14:27:27.726Z,7.45
2022-12-11T14:29:55.071Z,5.90
2022-12-11T14:32:43.283Z,5.10
2022-12-11T14:35:24.221Z,4.47
2022-12-11T14:37:52.347Z,5.50
2022-12-11T14:40:23.899Z,4.30
2022-12-11T14:43:00.134Z,5.32
2022-12-11T14:45:38.598Z,4.75
2022-12-11T14:48:20.889Z,5.65
2022-12-11T14:51:01.163Z,5.25
2022-12-11T14:53:40.257Z,6.53
2022-12-11T14:56:09.794Z,7.93
2022-12-11T14:58:46.847Z,8.70
2022-12-11T15:01:25.585Z,8.35
2022-12-11T15:04:14.641Z,7.35
2022-12-11T15:06:49.124Z,7.45
2022-12-11T15:09:34.015Z,7.72
2022-12-11T15:12:11.323Z,10.80
2022-12-11T15:14:50.341Z,6.90
2022-12-11T15:17:18.794Z,6.53
2022-12-11T15:19:51.692Z,5.68
2022-12-11T15:22:23.800Z,4.82
2022-12-11T15:24:53.258Z,5.57
2022-12-11T15:27:25.201Z,5.43
2022-12-11T15:29:52.027Z,6.43
2022-12-11T15:32:21.786Z,6.68
2022-12-11T15:34:51.470Z,5.70
2022-12-11T15:37:22.851Z,6.60
2022-12-11T15:39:50.233Z,6.30
2022-12-11T15:42:41.739Z,7.20
2022-12-11T15:45:16.601Z,10.27
2022-12-11T15:47:43.969Z,8.45
2022-12-11T15:50:22.962Z,10.32
2022-12-11T15:52:51.489Z,7.20
2022-12-11T15:55:19.598Z,6.32
2022-12-11T15:57:51.344Z,5.40
2022-12-11T16:00:19.386Z,6.88
2022-12-11T16:02:46.653Z,6.78
2022-12-11T16:05:14.491Z,8.02
2022-12-11T16:07:41.770Z,12.00
2022-12-11T16:10:14.506Z,13.88
2022-12-11T16:12:42.005Z,9.27
2022-12-11T16:15:09.788Z,10.98
2022-12-11T16:17:36.865Z,12.15
2022-12-11T16:20:04.056Z,9.98
2022-12-11T16:22:31.142Z,8.75
2022-12-11T16:24:57.767Z,7.10
2022-12-11T16:27:24.458Z,5.90
2022-12-11T16:29:51.352Z,6.25
2022-12-11T16:32:18.639Z,6.45
2022-12-11T16:34:45.294Z,12.55
2022-12-11T16:37:12.951Z,22.40
2022-12-11T16:39:39.852Z,13.13
2022-12-11T16:42:07.152Z,8.18
2022-12-11T16:44:33.987Z,7.03
2022-12-11T16:47:00.725Z,5.47
2022-12-11T16:49:27.373Z,5.63
2022-12-11T16:51:54.044Z,6.15
2022-12-11T16:54:20.726Z,5.82
2022-12-11T16:56:47.442Z,6.30
2022-12-11T16:59:14.094Z,13.25
2022-12-11T17:01:41.144Z,13.95
2022-12-11T17:04:07.925Z,10.70
2022-12-11T17:06:34.702Z,9.80
2022-12-11T17:09:01.515Z,11.70
2022-12-11T17:11:28.323Z,10.55
2022-12-11T17:13:56.665Z,9.15
2022-12-11T17:16:26.139Z,9.13
2022-12-11T17:18:53.189Z,8.23
2022-12-11T17:21:22.310Z,10.10
2022-12-11T17:23:49.919Z,11.55
2022-12-11T17:26:17.186Z,13.07
2022-12-11T17:28:44.407Z,6.72
2022-12-11T17:31:17.341Z,7.60
2022-12-11T17:33:45.178Z,7.75
2022-12-11T17:36:14.483Z,5.80
2022-12-11T17:38:41.521Z,6.03
2022-12-11T17:41:13.119Z,8.73
2022-12-11T17:43:43.568Z,5.43
2022-12-11T17:46:11.641Z,19.63
2022-12-11T17:48:38.699Z,33.00
2022-12-11T17:51:07.808Z,22.05
2022-12-11T17:53:36.299Z,16.85
2022-12-11T17:56:06.455Z,12.88
2022-12-11T17:58:34.083Z,7.82
2022-12-11T18:01:05.776Z,7.25
2022-12-11T18:03:32.504Z,10.38
2022-12-11T18:06:04.833Z,8.52
2022-12-11T18:08:31.991Z,12.27
2022-12-11T18:11:09.591Z,11.38
2022-12-11T18:13:36.409Z,10.98
2022-12-11T18:16:06.038Z,10.38
2022-12-11T18:18:33.251Z,10.50
2022-12-11T18:21:00.367Z,12.27
2022-12-11T18:23:27.505Z,12.18
2022-12-11T18:25:54.692Z,11.18
2022-12-11T18:28:21.506Z,12.55
2022-12-11T18:30:48.316Z,12.65
2022-12-11T18:33:15.109Z,11.25
2022-12-11T18:35:42.148Z,11.73
2022-12-11T18:38:10.470Z,12.27
2022-12-11T18:40:38.435Z,11.48
2022-12-11T18:43:05.105Z,17.88
2022-12-11T18:45:32.196Z,18.13
2022-12-11T18:47:59.100Z,15.20
2022-12-11T18:50:25.918Z,14.40
2022-12-11T18:52:54.623Z,14.35
2022-12-11T18:55:21.714Z,13.70
2022-12-11T18:57:48.651Z,13.85
2022-12-11T19:00:16.429Z,11.77
2022-12-11T19:02:43.166Z,9.88
2022-12-11T19:05:10.792Z,9.88
2022-12-11T19:07:37.893Z,10.43
2022-12-11T19:10:05.523Z,11.10
2022-12-11T19:12:32.167Z,10.82
2022-12-11T19:14:58.931Z,10.20
2022-12-11T19:17:25.649Z,9.07
2022-12-11T19:19:52.368Z,11.13
2022-12-11T19:22:19.064Z,10.75
2022-12-11T19:24:45.776Z,10.30
2022-12-11T19:27:13.840Z,11.65
2022-12-11T19:29:41.315Z,14.93
2022-12-11T19:32:08.184Z,18.63
2022-12-11T19:34:34.860Z,17.45
2022-12-11T19:37:01.508Z,18.20
2022-12-11T19:39:28.179Z,18.30
2022-12-11T19:41:54.866Z,17.20
2022-12-11T19:44:21.582Z,15.13
2022-12-11T19:46:48.363Z,14.40
2022-12-11T19:49:15.470Z,13.70
2022-12-11T19:51:42.270Z,10.98
2022-12-11T19:54:13.039Z,8.93
2022-12-11T19:56:39.786Z,8.40
2022-12-11T19:59:08.939Z,8.75
2022-12-11T20:01:37.592Z,7.75
2022-12-11T20:04:15.016Z,10.68
2022-12-11T20:06:43.569Z,10.02
2022-12-11T20:09:12.014Z,10.45
2022-12-11T20:11:40.962Z,11.07
2022-12-11T20:14:07.862Z,11.82
2022-12-11T20:17:02.147Z,12.32
2022-12-11T20:19:21.256Z,11.52
2022-12-11T20:21:48.107Z,9.75
2022-12-11T20:24:14.803Z,11.52
2022-12-11T20:26:41.521Z,10.32
2022-12-11T20:29:08.468Z,10.60
2022-12-11T20:31:36.791Z,10.57
2022-12-11T20:34:04.549Z,9.75
2022-12-11T20:36:31.696Z,12.68
2022-12-11T20:38:58.937Z,10.90
2022-12-11T20:41:26.684Z,13.68
2022-12-11T20:43:54.216Z,12.43
2022-12-11T20:46:25.101Z,12.13
2022-12-11T20:48:53.136Z,10.55
2022-12-11T20:51:25.685Z,14.40
2022-12-11T20:54:01.253Z,13.65
2022-12-11T20:56:30.903Z,17.15
2022-12-11T20:58:59.134Z,22.98
2022-12-11T21:01:28.428Z,21.20
2022-12-11T21:03:55.138Z,15.38
2022-12-11T21:06:25.851Z,13.45
2022-12-11T21:08:53.570Z,11.20
2022-12-11T21:11:20.978Z,12.98
2022-12-11T21:13:47.733Z,12.63
2022-12-11T21:16:14.570Z,12.05
2022-12-11T21:18:41.621Z,9.75
2022-12-11T21:21:08.368Z,9.43
2022-12-11T21:23:35.422Z,9.43
2022-12-11T21:26:03.225Z,11.15
2022-12-11T21:28:35.246Z,12.48
2022-12-11T21:31:05.454Z,14.68
2022-12-11T21:33:32.155Z,12.45
2022-12-11T21:36:00.320Z,12.75
2022-12-11T21:38:27.896Z,10.00
2022-12-11T21:40:55.595Z,11.60
2022-12-11T21:43:22.342Z,12.82
2022-12-11T21:46:04.904Z,11.48
2022-12-11T21:48:31.947Z,11.45
2022-12-11T21:51:06.760Z,11.65
2022-12-11T21:53:33.569Z,11.80
2022-12-11T21:56:00.265Z,11.88
2022-12-11T21:58:26.912Z,10.93
2022-12-11T22:00:53.606Z,12.75
2022-12-11T22:03:20.449Z,12.30
2022-12-11T22:05:47.074Z,13.18
2022-12-11T22:08:13.795Z,11.77
2022-12-11T22:10:40.420Z,12.95
2022-12-11T22:13:07.077Z,13.90
2022-12-11T22:15:33.769Z,12.07
2022-12-11T22:18:00.394Z,13.50
2022-12-11T22:20:27.061Z,11.93
2022-12-11T22:22:53.705Z,13.23
2022-12-11T22:25:20.361Z,14.02
2022-12-11T22:27:47.026Z,13.05
2022-12-11T22:30:14.057Z,12.93
2022-12-11T22:32:40.715Z,11.43
2022-12-11T22:35:07.665Z,13.10
2022-12-11T22:37:34.290Z,12.05
2022-12-11T22:40:01.195Z,12.38
2022-12-11T22:42:27.881Z,11.07
2022-12-11T22:44:54.508Z,10.70
2022-12-11T22:47:21.159Z,10.85
2022-12-11T22:49:47.927Z,11.40
2022-12-11T22:52:14.561Z,11.13
2022-12-11T22:54:42.492Z,9.80
2022-12-11T22:57:09.381Z,9.82
2022-12-11T22:59:36.474Z,11.35
2022-12-11T23:02:03.382Z,11.52
2022-12-11T23:04:30.695Z,11.85
2022-12-11T23:06:57.684Z,10.88
2022-12-11T23:09:24.534Z,9.90
2022-12-11T23:11:51.707Z,10.25
2022-12-11T23:14:19.030Z,11.13
2022-12-11T23:16:45.723Z,11.98
2022-12-11T23:19:13.013Z,11.45
2022-12-11T23:21:40.366Z,11.57
2022-12-11T23:24:07.611Z,12.73
2022-12-11T23:26:34.422Z,11.40
2022-12-11T23:29:02.013Z,9.95
2022-12-11T23:31:30.092Z,10.55
2022-12-11T23:33:57.191Z,10.40
2022-12-11T23:36:25.293Z,11.35
2022-12-11T23:38:55.024Z,11.60
2022-12-11T23:41:22.151Z,10.68
2022-12-11T23:43:48.818Z,9.30
2022-12-11T23:46:21.545Z,10.27
2022-12-11T23:48:48.871Z,10.45
2022-12-11T23:51:17.851Z,10.95
2022-12-11T23:53:45.077Z,9.43
2022-12-11T23:56:16.141Z,9.82
2022-12-11T23:58:42.820Z,8.52
